Detall de PIREP

Printer-friendly versionPDF version

[2014/09/13 15:07:00]
Flight IATA:CT1052
Pilot Number:012
Company ICAO:CAT
Aircraft Type:F50/A
PAX:50
Aircraft Registration:PAOB
Departing Airport: LICJ
Destination Airport: LICG
Alternate Airport:DTTA
Online: VATSIM
Route:TRP L869 MEGAN M740 ROBET
Flight Level:F110
No Slew and time accel
No pause
Crash detect
Detect pilot in Cockpit between each 30 and 45 minutes
15:07 Zero fuel Weight: 37036 Lbs, Fuel Weight: 4512 Lbs
15:07 VATSIM:LICJ 131450Z 29015KT 9999 FEW035 26/22 Q1015
15:07 VATSIM:LICG 131355Z 32007KT 9999 SCT013 27/26 Q1016 RMK SCT VIS MIN 9999 WIND THR08 33005KT WIND THR21 31007KT BLU
15:07 MEDITERRANEAN ODYSSEY
15:08 Parking Brakes off
15:13 Take-off
15:13 Take off Weight: 41472 Lbs
15:13 Wind: 287º @ 016 Knots Heading: 250º
15:13 POS N38º 10´ 51´´ E013º 06´ 22´´
15:13 Gear Up: 123 Knots
15:13 Flaps:1 at 123 Knots
15:13 Flaps:0 at 135 Knots
15:19 TOC
15:19 Fuel Weight: 4159 Lb
15:28 Wind:287º@017 Knots Heading: 233º Ground Speed: 242 Knots Altitude 11046 ft
15:37 TOD
15:37 Fuel Weight: 3609 Lb
15:43 Wind:279º@012 Knots Heading: 081º Ground Speed: 229 Knots Altitude 5111 ft
15:47 Flaps:1 at 182 Knots
15:48 Gear Down: 174 Knots
15:48 Flaps:2 at 161 Knots
15:48 Flaps:3 at 137 Knots
15:48 Flaps:4 at 128 Knots
15:48 Flaps:5 at 123 Knots
15:48 Flaps:6 at 125 Knots
15:50 TouchDown:Rate -359 ft/min Speed: 94 Knots
15:50 VATSIM:LICG 131455Z 33008KT 9999 FEW017 27/25 Q1016
15:50 Land
15:50 Wind:327º@008 Knots
15:50 Heading: 264º
15:50 Flight Duration: 00:37
15:50 Landing Weight: 40419 Lbs
15:50 POS N36º 48´ 57´´ E011º 57´ 56´´
15:52 Parking brakes on
15:52 Block to Block Duration: 00:44
15:52 Final Fuel: 3355 Lbls
15:52 Spent Fuel: 1157 Lbls
15:52 Flight Length: 133 NM
15:52 TOD Land Length: 44 NM

Exportar CSV

Powered by Drupal - Modified by Danger4k